KLM91R EHAM-LDSP
Flight info
| Callsign | KLM91R |
|---|---|
| Flight time | 1h 47m |
| Altitude | 35000 |
| Route | EDUPO Z739 MISGO/N0454F390 DCT ASBON DCT TUSUK DCT UTABA DCT BEMKI DCT ELMEM DCT DIRAB DCT VESAL DCT PEVAL DCT PUL DCT LOS DCT MINTU DCT SAL |
| Aircraft | B737/M-SDE2E3FGHIRWXY/LB1 |
Departure
| Time | 2026-05-05 14:00 |
|---|---|
| Airport | Amsterdam Airport Schiphol (EHAM) |
Arrival
| Time | 2026-05-05 15:47 |
|---|---|
| Airport | Split Saint Jerome Airport (LDSP) |
| Time | Latitude | Longitude | Altitude | Speed | Heading |
|---|---|---|---|---|---|
| 2026-05-05 13:38 | 52.30342 | 4.76430 | 0 ft | 0 kts | 237° |
| 2026-05-05 13:51 | 52.30347 | 4.76443 | 0 ft | 2 kts | 236° |
| 2026-05-05 13:51 | 52.30353 | 4.76457 | 0 ft | 1 kts | 237° |
| 2026-05-05 13:51 | 52.30363 | 4.76474 | 0 ft | 2 kts | 207° |
| 2026-05-05 13:52 | 52.30378 | 4.76482 | 0 ft | 2 kts | 183° |
| 2026-05-05 13:52 | 52.30392 | 4.76478 | 1 ft | 2 kts | 159° |
| 2026-05-05 13:52 | 52.30399 | 4.76473 | 1 ft | 1 kts | 145° |
| 2026-05-05 13:52 | 52.30402 | 4.76469 | 1 ft | 0 kts | 147° |
| 2026-05-05 13:54 | 52.30392 | 4.76479 | 1 ft | 4 kts | 149° |
| 2026-05-05 13:55 | 52.30342 | 4.76531 | 0 ft | 12 kts | 149° |
| 2026-05-05 13:55 | 52.30266 | 4.76445 | 0 ft | 17 kts | 238° |
| 2026-05-05 13:55 | 52.30194 | 4.76254 | 0 ft | 23 kts | 237° |
| 2026-05-05 13:55 | 52.30102 | 4.76018 | 0 ft | 24 kts | 238° |
| 2026-05-05 13:56 | 52.30012 | 4.75782 | 0 ft | 24 kts | 238° |
| 2026-05-05 13:56 | 52.29922 | 4.75548 | 0 ft | 24 kts | 238° |
| 2026-05-05 13:56 | 52.29839 | 4.75328 | -1 ft | 22 kts | 244° |
| 2026-05-05 13:56 | 52.29879 | 4.75124 | 1 ft | 19 kts | 311° |
| 2026-05-05 13:57 | 52.29968 | 4.74958 | 1 ft | 19 kts | 311° |
| 2026-05-05 13:57 | 52.30058 | 4.74793 | 0 ft | 21 kts | 312° |
| 2026-05-05 13:57 | 52.30170 | 4.74587 | -5 ft | 25 kts | 310° |
| 2026-05-05 13:57 | 52.30291 | 4.74362 | -10 ft | 27 kts | 311° |
| 2026-05-05 13:58 | 52.30417 | 4.74122 | -12 ft | 27 kts | 300° |
| 2026-05-05 13:58 | 52.30407 | 4.73908 | -11 ft | 13 kts | 273° |
| 2026-05-05 13:58 | 52.30422 | 4.73764 | -9 ft | 11 kts | 319° |
| 2026-05-05 13:58 | 52.30455 | 4.73758 | -9 ft | 0 kts | 4° |
| 2026-05-05 13:59 | 52.30602 | 4.73772 | -9 ft | 54 kts | 4° |
| 2026-05-05 13:59 | 52.31223 | 4.73828 | -3 ft | 122 kts | 4° |
| 2026-05-05 14:00 | 52.33481 | 4.74036 | 654 ft | 184 kts | 5° |
| 2026-05-05 14:00 | 52.34728 | 4.74399 | 1457 ft | 186 kts | 24° |
| 2026-05-05 14:00 | 52.35874 | 4.75418 | 2076 ft | 194 kts | 30° |
| 2026-05-05 14:00 | 52.37120 | 4.76458 | 2551 ft | 210 kts | 27° |
| 2026-05-05 14:01 | 52.38406 | 4.77726 | 3044 ft | 225 kts | 39° |
| 2026-05-05 14:01 | 52.39562 | 4.79572 | 3547 ft | 241 kts | 46° |
| 2026-05-05 14:01 | 52.40704 | 4.81625 | 4133 ft | 251 kts | 47° |
| 2026-05-05 14:01 | 52.41785 | 4.83887 | 4828 ft | 257 kts | 58° |
| 2026-05-05 14:02 | 52.42416 | 4.86615 | 5503 ft | 265 kts | 79° |
| 2026-05-05 14:02 | 52.42502 | 4.89658 | 6209 ft | 271 kts | 89° |
| 2026-05-05 14:02 | 52.42471 | 4.92747 | 6947 ft | 276 kts | 90° |
| 2026-05-05 14:02 | 52.42313 | 4.95876 | 7702 ft | 280 kts | 100° |
| 2026-05-05 14:03 | 52.41668 | 4.98855 | 8455 ft | 286 kts | 118° |
| 2026-05-05 14:03 | 52.40367 | 5.01332 | 9236 ft | 290 kts | 140° |
| 2026-05-05 14:03 | 52.38734 | 5.03249 | 10006 ft | 294 kts | 144° |
| 2026-05-05 14:03 | 52.37030 | 5.05170 | 10564 ft | 306 kts | 144° |
| 2026-05-05 14:04 | 52.35247 | 5.07206 | 11044 ft | 321 kts | 144° |
| 2026-05-05 14:04 | 52.33434 | 5.09407 | 11507 ft | 335 kts | 139° |
| 2026-05-05 14:04 | 52.31709 | 5.12082 | 11926 ft | 351 kts | 132° |
| 2026-05-05 14:04 | 52.30024 | 5.15128 | 12323 ft | 367 kts | 130° |
| 2026-05-05 14:05 | 52.28346 | 5.18311 | 12773 ft | 380 kts | 129° |
| 2026-05-05 14:05 | 52.26610 | 5.21608 | 13511 ft | 385 kts | 129° |
| 2026-05-05 14:05 | 52.24873 | 5.24893 | 14269 ft | 389 kts | 128° |
| 2026-05-05 14:05 | 52.23205 | 5.28340 | 15080 ft | 392 kts | 126° |
| 2026-05-05 14:06 | 52.21598 | 5.31947 | 15897 ft | 395 kts | 124° |
| 2026-05-05 14:06 | 52.20028 | 5.35614 | 16639 ft | 399 kts | 124° |
| 2026-05-05 14:06 | 52.18451 | 5.39335 | 17388 ft | 403 kts | 124° |
| 2026-05-05 14:06 | 52.16866 | 5.43062 | 18119 ft | 406 kts | 125° |
| 2026-05-05 14:07 | 52.15249 | 5.46831 | 18823 ft | 410 kts | 125° |
| 2026-05-05 14:07 | 52.13600 | 5.50650 | 19515 ft | 414 kts | 126° |
| 2026-05-05 14:07 | 52.11944 | 5.54461 | 20160 ft | 418 kts | 126° |
| 2026-05-05 14:07 | 52.10248 | 5.58347 | 20817 ft | 422 kts | 126° |
| 2026-05-05 14:08 | 52.08557 | 5.62210 | 21473 ft | 425 kts | 126° |
| 2026-05-05 14:08 | 52.06829 | 5.66147 | 22086 ft | 429 kts | 127° |
| 2026-05-05 14:08 | 52.05062 | 5.69975 | 22685 ft | 432 kts | 130° |
| 2026-05-05 14:08 | 52.03138 | 5.73754 | 23280 ft | 435 kts | 132° |
| 2026-05-05 14:09 | 52.01141 | 5.77476 | 23849 ft | 439 kts | 133° |
| 2026-05-05 14:09 | 51.99129 | 5.81154 | 24434 ft | 441 kts | 133° |
| 2026-05-05 14:09 | 51.97072 | 5.84893 | 24993 ft | 445 kts | 134° |
| 2026-05-05 14:09 | 51.95020 | 5.88636 | 25546 ft | 448 kts | 134° |
| 2026-05-05 14:10 | 51.92976 | 5.92385 | 26095 ft | 451 kts | 133° |
| 2026-05-05 14:10 | 51.90886 | 5.96233 | 26628 ft | 454 kts | 134° |
| 2026-05-05 14:10 | 51.88837 | 6.00013 | 27149 ft | 456 kts | 133° |
| 2026-05-05 14:10 | 51.86749 | 6.03873 | 27639 ft | 460 kts | 133° |
| 2026-05-05 14:11 | 51.84632 | 6.07784 | 28174 ft | 462 kts | 134° |
| 2026-05-05 14:11 | 51.82525 | 6.11662 | 28682 ft | 464 kts | 134° |
| 2026-05-05 14:11 | 51.80405 | 6.15553 | 29559 ft | 457 kts | 134° |
| 2026-05-05 14:11 | 51.78317 | 6.19379 | 30319 ft | 453 kts | 134° |
| 2026-05-05 14:12 | 51.76275 | 6.23115 | 31007 ft | 450 kts | 134° |
| 2026-05-05 14:12 | 51.74190 | 6.26917 | 31452 ft | 452 kts | 135° |
| 2026-05-05 14:12 | 51.72137 | 6.30652 | 31971 ft | 452 kts | 135° |
| 2026-05-05 14:12 | 51.70052 | 6.34442 | 32485 ft | 452 kts | 135° |
| 2026-05-05 14:13 | 51.67997 | 6.38173 | 32949 ft | 452 kts | 135° |
| 2026-05-05 14:13 | 51.65901 | 6.41971 | 33543 ft | 450 kts | 135° |
| 2026-05-05 14:13 | 51.63836 | 6.45711 | 34147 ft | 447 kts | 135° |
| 2026-05-05 14:13 | 51.61810 | 6.49374 | 34690 ft | 445 kts | 136° |
| 2026-05-05 14:14 | 51.59746 | 6.53101 | 34872 ft | 448 kts | 136° |
| 2026-05-05 14:14 | 51.57667 | 6.56852 | 34869 ft | 448 kts | 136° |
| 2026-05-05 14:14 | 51.53605 | 6.64176 | 34861 ft | 444 kts | 136° |
| 2026-05-05 14:15 | 51.49560 | 6.71443 | 34862 ft | 444 kts | 136° |
| 2026-05-05 14:15 | 51.45568 | 6.78587 | 34857 ft | 443 kts | 136° |
| 2026-05-05 14:16 | 51.41372 | 6.85634 | 34852 ft | 437 kts | 142° |
| 2026-05-05 14:16 | 51.36581 | 6.91574 | 35260 ft | 434 kts | 150° |
| 2026-05-05 14:17 | 51.34125 | 6.94172 | 35652 ft | 430 kts | 151° |
| 2026-05-05 14:17 | 51.31644 | 6.96695 | 35927 ft | 430 kts | 152° |
| 2026-05-05 14:17 | 51.29121 | 6.99216 | 36159 ft | 431 kts | 152° |
| 2026-05-05 14:17 | 51.26589 | 7.01734 | 36371 ft | 431 kts | 152° |
| 2026-05-05 14:18 | 51.24061 | 7.04245 | 36576 ft | 431 kts | 152° |
| 2026-05-05 14:18 | 51.21510 | 7.06779 | 36800 ft | 433 kts | 152° |
| 2026-05-05 14:18 | 51.18964 | 7.09305 | 37065 ft | 434 kts | 151° |
| 2026-05-05 14:18 | 51.16406 | 7.11927 | 36817 ft | 451 kts | 148° |
| 2026-05-05 14:19 | 51.13862 | 7.14884 | 36575 ft | 453 kts | 148° |
| 2026-05-05 14:19 | 51.11276 | 7.17644 | 37078 ft | 445 kts | 150° |
| 2026-05-05 14:19 | 51.08652 | 7.20214 | 37662 ft | 437 kts | 152° |
| 2026-05-05 14:19 | 51.06073 | 7.22651 | 38058 ft | 434 kts | 152° |
| 2026-05-05 14:20 | 51.03466 | 7.25098 | 38215 ft | 437 kts | 152° |
| 2026-05-05 14:20 | 51.00872 | 7.27549 | 38387 ft | 439 kts | 152° |
| 2026-05-05 14:20 | 50.98262 | 7.30040 | 38662 ft | 439 kts | 152° |
| 2026-05-05 14:20 | 50.95642 | 7.32561 | 38807 ft | 440 kts | 151° |
| 2026-05-05 14:21 | 50.90464 | 7.37589 | 38821 ft | 437 kts | 151° |
| 2026-05-05 14:21 | 50.85339 | 7.42604 | 38829 ft | 436 kts | 151° |
| 2026-05-05 14:22 | 50.80204 | 7.47626 | 38823 ft | 435 kts | 151° |
| 2026-05-05 14:22 | 50.75061 | 7.52658 | 38824 ft | 435 kts | 151° |
| 2026-05-05 14:23 | 50.69920 | 7.57730 | 38822 ft | 436 kts | 149° |
| 2026-05-05 14:23 | 50.64856 | 7.62967 | 38822 ft | 437 kts | 149° |
| 2026-05-05 14:24 | 50.59845 | 7.68195 | 38826 ft | 435 kts | 149° |
| 2026-05-05 14:24 | 50.54815 | 7.73420 | 38823 ft | 435 kts | 149° |
| 2026-05-05 14:25 | 50.49782 | 7.78611 | 38828 ft | 435 kts | 150° |
| 2026-05-05 14:25 | 50.44757 | 7.83771 | 38828 ft | 433 kts | 150° |
| 2026-05-05 14:26 | 50.39704 | 7.88936 | 38827 ft | 435 kts | 150° |
| 2026-05-05 14:26 | 50.34701 | 7.94039 | 38831 ft | 434 kts | 149° |
| 2026-05-05 14:27 | 50.29615 | 7.99235 | 38821 ft | 434 kts | 150° |
| 2026-05-05 14:27 | 50.24606 | 8.04318 | 38829 ft | 433 kts | 150° |
| 2026-05-05 14:28 | 50.19573 | 8.09411 | 38837 ft | 433 kts | 150° |
| 2026-05-05 14:28 | 50.14537 | 8.14486 | 38832 ft | 433 kts | 150° |
| 2026-05-05 14:29 | 50.09296 | 8.18887 | 38836 ft | 429 kts | 157° |
| 2026-05-05 14:29 | 50.03879 | 8.22736 | 38841 ft | 429 kts | 158° |
| 2026-05-05 14:30 | 49.98464 | 8.26514 | 38841 ft | 428 kts | 158° |
| 2026-05-05 14:30 | 49.93059 | 8.30322 | 38839 ft | 429 kts | 158° |
| 2026-05-05 14:31 | 49.87661 | 8.34160 | 38823 ft | 431 kts | 157° |
| 2026-05-05 14:31 | 49.82192 | 8.38060 | 38822 ft | 432 kts | 157° |
| 2026-05-05 14:32 | 49.76785 | 8.41915 | 38838 ft | 431 kts | 157° |
| 2026-05-05 14:32 | 49.71370 | 8.45773 | 38831 ft | 430 kts | 157° |
| 2026-05-05 14:33 | 49.65928 | 8.49638 | 38826 ft | 431 kts | 157° |
| 2026-05-05 14:33 | 49.60525 | 8.53466 | 38829 ft | 430 kts | 157° |
| 2026-05-05 14:34 | 49.55077 | 8.57317 | 38843 ft | 432 kts | 157° |
| 2026-05-05 14:34 | 49.49661 | 8.61134 | 38842 ft | 431 kts | 157° |
| 2026-05-05 14:35 | 49.44240 | 8.64948 | 38836 ft | 432 kts | 157° |
| 2026-05-05 14:35 | 49.38780 | 8.68784 | 38843 ft | 431 kts | 158° |
| 2026-05-05 14:36 | 49.33352 | 8.72586 | 38840 ft | 432 kts | 158° |
| 2026-05-05 14:36 | 49.27927 | 8.76373 | 38846 ft | 432 kts | 158° |
| 2026-05-05 14:37 | 49.22459 | 8.80180 | 38846 ft | 433 kts | 158° |
| 2026-05-05 14:37 | 49.17043 | 8.83940 | 38843 ft | 433 kts | 158° |
| 2026-05-05 14:38 | 49.11644 | 8.87684 | 38829 ft | 432 kts | 158° |
| 2026-05-05 14:38 | 49.06158 | 8.91481 | 38841 ft | 433 kts | 158° |
| 2026-05-05 14:39 | 49.00743 | 8.95225 | 38838 ft | 432 kts | 158° |
| 2026-05-05 14:39 | 48.95262 | 8.98999 | 38830 ft | 433 kts | 158° |
| 2026-05-05 14:40 | 48.89869 | 9.02704 | 38832 ft | 433 kts | 158° |
| 2026-05-05 14:40 | 48.84366 | 9.06467 | 38836 ft | 433 kts | 158° |
| 2026-05-05 14:41 | 48.78903 | 9.10201 | 38837 ft | 433 kts | 158° |
| 2026-05-05 14:41 | 48.73446 | 9.13922 | 38836 ft | 433 kts | 158° |
| 2026-05-05 14:42 | 48.67963 | 9.17648 | 38836 ft | 433 kts | 158° |
| 2026-05-05 14:42 | 48.62500 | 9.21350 | 38842 ft | 434 kts | 158° |
| 2026-05-05 14:43 | 48.57019 | 9.25058 | 38835 ft | 434 kts | 158° |
| 2026-05-05 14:43 | 48.51504 | 9.28786 | 38837 ft | 434 kts | 158° |
| 2026-05-05 14:44 | 48.46037 | 9.32475 | 38831 ft | 434 kts | 158° |
| 2026-05-05 14:44 | 48.40536 | 9.36175 | 38829 ft | 434 kts | 159° |
| 2026-05-05 14:45 | 48.35027 | 9.39863 | 38828 ft | 433 kts | 159° |
| 2026-05-05 14:45 | 48.29546 | 9.43541 | 38838 ft | 435 kts | 158° |
| 2026-05-05 14:46 | 48.24176 | 9.47876 | 38840 ft | 440 kts | 149° |
| 2026-05-05 14:46 | 48.19333 | 9.53396 | 38851 ft | 443 kts | 144° |
| 2026-05-05 14:47 | 48.14627 | 9.59303 | 38846 ft | 443 kts | 143° |
| 2026-05-05 14:47 | 48.09898 | 9.65265 | 38852 ft | 444 kts | 144° |
| 2026-05-05 14:48 | 48.05213 | 9.71095 | 38842 ft | 443 kts | 144° |
| 2026-05-05 14:48 | 48.00477 | 9.76916 | 38849 ft | 443 kts | 144° |
| 2026-05-05 14:49 | 47.95739 | 9.82701 | 38847 ft | 444 kts | 144° |
| 2026-05-05 14:49 | 47.90945 | 9.88533 | 38854 ft | 444 kts | 145° |
| 2026-05-05 14:50 | 47.86301 | 9.94163 | 38853 ft | 443 kts | 145° |
| 2026-05-05 14:50 | 47.81521 | 9.99943 | 38849 ft | 445 kts | 145° |
| 2026-05-05 14:51 | 47.76724 | 10.05733 | 38858 ft | 445 kts | 145° |
| 2026-05-05 14:51 | 47.71919 | 10.11514 | 38862 ft | 445 kts | 145° |
| 2026-05-05 14:52 | 47.67107 | 10.17280 | 38877 ft | 447 kts | 145° |
| 2026-05-05 14:52 | 47.62294 | 10.23049 | 38885 ft | 446 kts | 145° |
| 2026-05-05 14:53 | 47.57481 | 10.28795 | 38889 ft | 448 kts | 145° |
| 2026-05-05 14:53 | 47.52530 | 10.34284 | 38906 ft | 444 kts | 150° |
| 2026-05-05 14:54 | 47.47376 | 10.39263 | 38915 ft | 443 kts | 152° |
| 2026-05-05 14:54 | 47.42188 | 10.44152 | 38923 ft | 445 kts | 152° |
| 2026-05-05 14:55 | 47.36982 | 10.49096 | 38916 ft | 444 kts | 151° |
| 2026-05-05 14:55 | 47.31794 | 10.54055 | 38926 ft | 446 kts | 151° |
| 2026-05-05 14:56 | 47.26640 | 10.59042 | 38944 ft | 447 kts | 149° |
| 2026-05-05 14:56 | 47.21574 | 10.64299 | 38948 ft | 448 kts | 148° |
| 2026-05-05 14:57 | 47.16536 | 10.69660 | 38968 ft | 449 kts | 149° |
| 2026-05-05 14:57 | 47.11474 | 10.75013 | 38975 ft | 451 kts | 149° |
| 2026-05-05 14:58 | 47.06424 | 10.80310 | 38977 ft | 449 kts | 149° |
| 2026-05-05 14:58 | 47.01323 | 10.85631 | 38983 ft | 450 kts | 149° |
| 2026-05-05 14:59 | 46.96241 | 10.90908 | 38986 ft | 451 kts | 149° |
| 2026-05-05 14:59 | 46.91123 | 10.96210 | 39002 ft | 452 kts | 149° |
| 2026-05-05 15:00 | 46.86938 | 11.00535 | 38999 ft | 452 kts | 149° |
| 2026-05-05 15:00 | 46.81084 | 11.06892 | 38980 ft | 455 kts | 143° |
| 2026-05-05 15:01 | 46.76524 | 11.13357 | 38981 ft | 460 kts | 137° |
| 2026-05-05 15:01 | 46.72179 | 11.20220 | 38991 ft | 461 kts | 136° |
| 2026-05-05 15:02 | 46.67889 | 11.27064 | 38989 ft | 461 kts | 136° |
| 2026-05-05 15:02 | 46.63535 | 11.33927 | 38982 ft | 462 kts | 137° |
| 2026-05-05 15:03 | 46.59181 | 11.40707 | 38978 ft | 462 kts | 137° |
| 2026-05-05 15:03 | 46.54760 | 11.47537 | 38987 ft | 463 kts | 137° |
| 2026-05-05 15:04 | 46.50350 | 11.54321 | 38990 ft | 463 kts | 137° |
| 2026-05-05 15:04 | 46.45951 | 11.61066 | 38995 ft | 464 kts | 137° |
| 2026-05-05 15:05 | 46.39322 | 11.71195 | 38990 ft | 463 kts | 137° |
| 2026-05-05 15:06 | 46.34824 | 11.77904 | 38987 ft | 464 kts | 139° |
| 2026-05-05 15:06 | 46.30291 | 11.84484 | 38987 ft | 463 kts | 139° |
| 2026-05-05 15:07 | 46.25719 | 11.91074 | 38985 ft | 464 kts | 139° |
| 2026-05-05 15:07 | 46.21153 | 11.97661 | 38978 ft | 464 kts | 139° |
| 2026-05-05 15:08 | 46.16617 | 12.04203 | 38967 ft | 465 kts | 139° |
| 2026-05-05 15:08 | 46.12047 | 12.10792 | 38965 ft | 464 kts | 138° |
| 2026-05-05 15:09 | 46.07471 | 12.17373 | 38967 ft | 464 kts | 138° |
| 2026-05-05 15:09 | 46.02929 | 12.23889 | 38970 ft | 464 kts | 138° |
| 2026-05-05 15:10 | 45.98402 | 12.30360 | 38975 ft | 465 kts | 138° |
| 2026-05-05 15:10 | 45.93823 | 12.36893 | 38979 ft | 467 kts | 138° |
| 2026-05-05 15:11 | 45.89431 | 12.43147 | 38980 ft | 467 kts | 138° |
| 2026-05-05 15:11 | 45.84799 | 12.49727 | 38980 ft | 467 kts | 138° |
| 2026-05-05 15:12 | 45.80219 | 12.56222 | 38974 ft | 467 kts | 138° |
| 2026-05-05 15:12 | 45.75602 | 12.62752 | 38973 ft | 467 kts | 138° |
| 2026-05-05 15:13 | 45.70975 | 12.69280 | 38973 ft | 467 kts | 139° |
| 2026-05-05 15:13 | 45.66367 | 12.75762 | 38972 ft | 468 kts | 139° |
| 2026-05-05 15:14 | 45.61760 | 12.82231 | 38964 ft | 466 kts | 139° |
| 2026-05-05 15:14 | 45.57113 | 12.88734 | 38966 ft | 471 kts | 139° |
| 2026-05-05 15:15 | 45.52478 | 12.95206 | 38964 ft | 469 kts | 139° |
| 2026-05-05 15:15 | 45.47810 | 13.01711 | 38965 ft | 469 kts | 139° |
| 2026-05-05 15:16 | 45.43176 | 13.08153 | 38966 ft | 468 kts | 139° |
| 2026-05-05 15:16 | 45.38493 | 13.14645 | 38969 ft | 470 kts | 139° |
| 2026-05-05 15:17 | 45.33814 | 13.21115 | 38970 ft | 469 kts | 139° |
| 2026-05-05 15:17 | 45.29180 | 13.27629 | 38973 ft | 472 kts | 136° |
| 2026-05-05 15:18 | 45.24818 | 13.34553 | 38977 ft | 472 kts | 133° |
| 2026-05-05 15:18 | 45.20543 | 13.41645 | 38973 ft | 474 kts | 133° |
| 2026-05-05 15:19 | 45.16265 | 13.48686 | 38977 ft | 474 kts | 133° |
| 2026-05-05 15:19 | 45.11940 | 13.55698 | 38986 ft | 473 kts | 134° |
| 2026-05-05 15:20 | 45.07622 | 13.62638 | 38980 ft | 473 kts | 134° |
| 2026-05-05 15:20 | 45.03245 | 13.69636 | 39031 ft | 474 kts | 134° |
| 2026-05-05 15:21 | 44.98892 | 13.76574 | 38989 ft | 472 kts | 134° |
| 2026-05-05 15:21 | 44.94552 | 13.83460 | 38997 ft | 475 kts | 134° |
| 2026-05-05 15:22 | 44.90160 | 13.90412 | 38997 ft | 474 kts | 134° |
| 2026-05-05 15:22 | 44.85783 | 13.97252 | 39001 ft | 472 kts | 135° |
| 2026-05-05 15:23 | 44.81365 | 14.04000 | 39000 ft | 473 kts | 135° |
| 2026-05-05 15:23 | 44.76881 | 14.10807 | 38790 ft | 477 kts | 135° |
| 2026-05-05 15:23 | 44.74630 | 14.14218 | 38306 ft | 476 kts | 135° |
| 2026-05-05 15:24 | 44.72394 | 14.17608 | 37827 ft | 473 kts | 135° |
| 2026-05-05 15:24 | 44.70167 | 14.20984 | 37344 ft | 472 kts | 135° |
| 2026-05-05 15:24 | 44.67916 | 14.24394 | 36859 ft | 474 kts | 135° |
| 2026-05-05 15:24 | 44.65695 | 14.27756 | 36382 ft | 477 kts | 135° |
| 2026-05-05 15:25 | 44.63427 | 14.31186 | 35898 ft | 480 kts | 135° |
| 2026-05-05 15:25 | 44.61142 | 14.34639 | 35412 ft | 481 kts | 135° |
| 2026-05-05 15:25 | 44.58899 | 14.38026 | 35059 ft | 480 kts | 135° |
| 2026-05-05 15:26 | 44.54300 | 14.44953 | 34571 ft | 489 kts | 136° |
| 2026-05-05 15:26 | 44.51951 | 14.48335 | 34000 ft | 487 kts | 139° |
| 2026-05-05 15:26 | 44.49478 | 14.51550 | 33388 ft | 484 kts | 141° |
| 2026-05-05 15:26 | 44.46946 | 14.54629 | 32755 ft | 482 kts | 142° |
| 2026-05-05 15:27 | 44.44386 | 14.57642 | 32084 ft | 482 kts | 143° |
| 2026-05-05 15:27 | 44.41812 | 14.60633 | 31415 ft | 482 kts | 143° |
| 2026-05-05 15:27 | 44.39252 | 14.63599 | 30756 ft | 483 kts | 143° |
| 2026-05-05 15:27 | 44.36680 | 14.66587 | 30101 ft | 483 kts | 143° |
| 2026-05-05 15:28 | 44.34104 | 14.69592 | 29426 ft | 484 kts | 143° |
| 2026-05-05 15:28 | 44.31522 | 14.72615 | 28761 ft | 485 kts | 143° |
| 2026-05-05 15:28 | 44.28961 | 14.75623 | 28117 ft | 486 kts | 142° |
| 2026-05-05 15:28 | 44.26385 | 14.78656 | 27461 ft | 485 kts | 142° |
| 2026-05-05 15:29 | 44.23814 | 14.81687 | 26784 ft | 487 kts | 142° |
| 2026-05-05 15:29 | 44.21223 | 14.84740 | 26109 ft | 488 kts | 142° |
| 2026-05-05 15:29 | 44.18630 | 14.87796 | 25434 ft | 489 kts | 142° |
| 2026-05-05 15:29 | 44.16065 | 14.90818 | 24770 ft | 486 kts | 142° |
| 2026-05-05 15:30 | 44.13485 | 14.93855 | 24094 ft | 479 kts | 142° |
| 2026-05-05 15:30 | 44.10991 | 14.96790 | 23437 ft | 473 kts | 142° |
| 2026-05-05 15:30 | 44.08483 | 14.99736 | 22780 ft | 469 kts | 142° |
| 2026-05-05 15:30 | 44.05994 | 15.02656 | 22125 ft | 467 kts | 142° |
| 2026-05-05 15:31 | 44.03534 | 15.05539 | 21473 ft | 463 kts | 142° |
| 2026-05-05 15:31 | 44.01107 | 15.08380 | 20822 ft | 458 kts | 142° |
| 2026-05-05 15:31 | 43.98668 | 15.11229 | 20172 ft | 454 kts | 142° |
| 2026-05-05 15:31 | 43.96293 | 15.14000 | 19531 ft | 450 kts | 142° |
| 2026-05-05 15:32 | 43.93905 | 15.16784 | 18879 ft | 447 kts | 142° |
| 2026-05-05 15:32 | 43.91528 | 15.19578 | 18226 ft | 442 kts | 142° |
| 2026-05-05 15:32 | 43.89226 | 15.22321 | 17581 ft | 438 kts | 141° |
| 2026-05-05 15:32 | 43.86951 | 15.25050 | 16943 ft | 435 kts | 141° |
| 2026-05-05 15:33 | 43.84653 | 15.27808 | 16292 ft | 432 kts | 141° |
| 2026-05-05 15:33 | 43.82414 | 15.30495 | 15652 ft | 428 kts | 141° |
| 2026-05-05 15:33 | 43.80162 | 15.33194 | 15003 ft | 424 kts | 141° |
| 2026-05-05 15:33 | 43.77961 | 15.35826 | 14364 ft | 420 kts | 141° |
| 2026-05-05 15:34 | 43.75745 | 15.38471 | 13714 ft | 416 kts | 141° |
| 2026-05-05 15:34 | 43.73571 | 15.41060 | 13079 ft | 412 kts | 141° |
| 2026-05-05 15:34 | 43.71423 | 15.43619 | 12442 ft | 409 kts | 141° |
| 2026-05-05 15:34 | 43.69292 | 15.46165 | 11794 ft | 402 kts | 141° |
| 2026-05-05 15:35 | 43.67197 | 15.48662 | 11157 ft | 395 kts | 141° |
| 2026-05-05 15:35 | 43.65138 | 15.51113 | 10518 ft | 389 kts | 141° |
| 2026-05-05 15:35 | 43.63125 | 15.53500 | 10174 ft | 375 kts | 141° |
| 2026-05-05 15:35 | 43.61228 | 15.55745 | 10326 ft | 347 kts | 141° |
| 2026-05-05 15:36 | 43.59451 | 15.57842 | 10362 ft | 327 kts | 141° |
| 2026-05-05 15:36 | 43.57751 | 15.59843 | 10286 ft | 311 kts | 141° |
| 2026-05-05 15:36 | 43.56136 | 15.61740 | 10056 ft | 303 kts | 141° |
| 2026-05-05 15:36 | 43.54549 | 15.63608 | 9664 ft | 302 kts | 141° |
| 2026-05-05 15:37 | 43.52937 | 15.65504 | 9250 ft | 301 kts | 142° |
| 2026-05-05 15:37 | 43.51368 | 15.67353 | 8877 ft | 299 kts | 142° |
| 2026-05-05 15:37 | 43.49791 | 15.69205 | 8484 ft | 297 kts | 142° |
| 2026-05-05 15:37 | 43.48240 | 15.71033 | 8141 ft | 287 kts | 142° |
| 2026-05-05 15:38 | 43.46751 | 15.72783 | 7782 ft | 280 kts | 142° |
| 2026-05-05 15:38 | 43.45281 | 15.74506 | 7426 ft | 273 kts | 142° |
| 2026-05-05 15:38 | 43.43857 | 15.76178 | 7088 ft | 267 kts | 142° |
| 2026-05-05 15:38 | 43.42437 | 15.77846 | 6759 ft | 274 kts | 142° |
| 2026-05-05 15:39 | 43.40980 | 15.79552 | 6404 ft | 273 kts | 142° |
| 2026-05-05 15:39 | 43.39544 | 15.81240 | 6066 ft | 271 kts | 141° |
| 2026-05-05 15:39 | 43.38172 | 15.82979 | 5736 ft | 268 kts | 137° |
| 2026-05-05 15:39 | 43.36867 | 15.84750 | 5594 ft | 257 kts | 137° |
| 2026-05-05 15:40 | 43.35635 | 15.86448 | 5530 ft | 245 kts | 136° |
| 2026-05-05 15:40 | 43.34467 | 15.88041 | 5459 ft | 234 kts | 137° |
| 2026-05-05 15:40 | 43.33335 | 15.89627 | 5295 ft | 233 kts | 132° |
| 2026-05-05 15:40 | 43.32516 | 15.91523 | 4943 ft | 235 kts | 105° |
| 2026-05-05 15:41 | 43.32590 | 15.93742 | 4602 ft | 237 kts | 70° |
| 2026-05-05 15:41 | 43.33521 | 15.95608 | 4357 ft | 236 kts | 47° |
| 2026-05-05 15:41 | 43.34682 | 15.97179 | 4107 ft | 234 kts | 46° |
| 2026-05-05 15:41 | 43.35921 | 15.98616 | 3859 ft | 233 kts | 40° |
| 2026-05-05 15:42 | 43.37128 | 16.00066 | 3611 ft | 229 kts | 48° |
| 2026-05-05 15:42 | 43.38165 | 16.01719 | 3360 ft | 226 kts | 55° |
| 2026-05-05 15:42 | 43.39105 | 16.03412 | 3112 ft | 224 kts | 57° |
| 2026-05-05 15:42 | 43.40051 | 16.05123 | 2953 ft | 220 kts | 56° |
| 2026-05-05 15:43 | 43.40978 | 16.06775 | 2947 ft | 222 kts | 56° |
| 2026-05-05 15:43 | 43.41936 | 16.08474 | 2943 ft | 221 kts | 56° |
| 2026-05-05 15:43 | 43.42842 | 16.10074 | 2946 ft | 207 kts | 57° |
| 2026-05-05 15:43 | 43.43695 | 16.11585 | 2950 ft | 192 kts | 57° |
| 2026-05-05 15:44 | 43.44513 | 16.13046 | 2865 ft | 193 kts | 57° |
| 2026-05-05 15:44 | 43.45322 | 16.14488 | 2621 ft | 193 kts | 57° |
| 2026-05-05 15:44 | 43.46138 | 16.15940 | 2355 ft | 191 kts | 57° |
| 2026-05-05 15:44 | 43.46944 | 16.17371 | 2090 ft | 189 kts | 57° |
| 2026-05-05 15:45 | 43.47754 | 16.18813 | 1827 ft | 185 kts | 57° |
| 2026-05-05 15:45 | 43.48504 | 16.20138 | 1607 ft | 170 kts | 57° |
| 2026-05-05 15:45 | 43.49211 | 16.21397 | 1354 ft | 159 kts | 57° |
| 2026-05-05 15:45 | 43.49849 | 16.22530 | 1175 ft | 144 kts | 57° |
| 2026-05-05 15:46 | 43.50442 | 16.23582 | 961 ft | 133 kts | 57° |
| 2026-05-05 15:46 | 43.51002 | 16.24575 | 791 ft | 130 kts | 57° |
| 2026-05-05 15:46 | 43.51556 | 16.25580 | 630 ft | 133 kts | 57° |
| 2026-05-05 15:46 | 43.52119 | 16.26591 | 468 ft | 133 kts | 56° |
| 2026-05-05 15:47 | 43.52674 | 16.27596 | 269 ft | 133 kts | 56° |
| 2026-05-05 15:47 | 43.53232 | 16.28603 | 85 ft | 131 kts | 56° |
| 2026-05-05 15:47 | 43.53684 | 16.29421 | 68 ft | 70 kts | 52° |
| 2026-05-05 15:47 | 43.53934 | 16.29872 | 63 ft | 45 kts | 52° |
| 2026-05-05 15:48 | 43.54041 | 16.30067 | 61 ft | 7 kts | 53° |
| 2026-05-05 15:48 | 43.54009 | 16.30095 | 60 ft | 7 kts | 194° |
| 2026-05-05 15:48 | 43.53955 | 16.30076 | 59 ft | 8 kts | 195° |
| 2026-05-05 15:48 | 43.53899 | 16.30049 | 58 ft | 8 kts | 219° |
| 2026-05-05 15:49 | 43.53862 | 16.29980 | 59 ft | 11 kts | 234° |
| 2026-05-05 15:49 | 43.53804 | 16.29875 | 59 ft | 15 kts | 233° |
| 2026-05-05 15:49 | 43.53740 | 16.29759 | 59 ft | 15 kts | 232° |
| 2026-05-05 15:49 | 43.53678 | 16.29647 | 59 ft | 13 kts | 232° |
| 2026-05-05 15:50 | 43.53612 | 16.29612 | 58 ft | 11 kts | 130° |
| 2026-05-05 15:50 | 43.53587 | 16.29684 | 56 ft | 1 kts | 108° |
| 2026-05-05 15:50 | 43.53582 | 16.29702 | 55 ft | 0 kts | 111° |